createdAt,value
2018-11-02T00:00:47.777Z,11.14
2018-11-02T00:01:47.842Z,11.12
2018-11-02T00:02:47.901Z,11.11
2018-11-02T00:03:47.977Z,11.08
2018-11-02T00:04:48.056Z,11.14
2018-11-02T00:05:48.090Z,11.15
2018-11-02T00:06:48.150Z,11.15
2018-11-02T00:07:48.213Z,11.08
2018-11-02T00:08:48.273Z,11.07
2018-11-02T00:09:48.350Z,11.08
2018-11-02T00:10:48.398Z,11.07
2018-11-02T00:11:48.461Z,11.12
2018-11-02T00:12:48.522Z,11.19
2018-11-02T00:13:48.582Z,11.17
2018-11-02T00:14:48.650Z,11.12
2018-11-02T00:15:48.716Z,11.14
2018-11-02T00:16:48.765Z,11.12
2018-11-02T00:17:48.830Z,11.08
2018-11-02T00:18:48.890Z,11.12
2018-11-02T00:19:48.962Z,11.15
2018-11-02T00:20:49.030Z,11.12
2018-11-02T00:21:49.078Z,11.08
2018-11-02T00:22:49.138Z,11.15
2018-11-02T00:23:49.202Z,11.12
2018-11-02T00:24:49.331Z,11.14
2018-11-02T00:25:49.322Z,11.14
2018-11-02T00:26:49.387Z,11.17
2018-11-02T00:27:49.447Z,11.22
2018-11-02T00:28:49.510Z,11.10
2018-11-02T00:29:49.579Z,11.14
2018-11-02T00:30:49.639Z,11.08
2018-11-02T00:31:49.815Z,11.12
2018-11-02T00:32:49.755Z,11.02
2018-11-02T00:33:49.839Z,11.04
2018-11-02T00:34:49.892Z,11.04
2018-11-02T00:35:49.947Z,11.04
2018-11-02T00:36:50.004Z,10.94
2018-11-02T00:37:50.071Z,10.96
2018-11-02T00:38:50.127Z,10.89
2018-11-02T00:39:50.207Z,10.86
2018-11-02T00:40:50.251Z,10.79
2018-11-02T00:41:50.311Z,10.76
2018-11-02T00:42:50.380Z,10.71
2018-11-02T00:43:50.446Z,10.63
2018-11-02T00:44:50.505Z,10.68
2018-11-02T00:45:50.568Z,10.63
2018-11-02T00:46:50.624Z,10.60
2018-11-02T00:47:50.680Z,10.74
2018-11-02T00:48:50.743Z,10.67
2018-11-02T00:49:50.816Z,10.71
2018-11-02T00:50:50.875Z,10.72
2018-11-02T00:51:50.933Z,10.75
2018-11-02T00:52:50.987Z,10.79
2018-11-02T00:53:51.063Z,10.81
2018-11-02T00:54:51.156Z,10.86
2018-11-02T00:55:51.188Z,10.93
2018-11-02T00:56:51.236Z,10.87
2018-11-02T00:57:51.300Z,10.94
2018-11-02T00:58:51.389Z,10.94
2018-11-02T00:59:51.428Z,10.94
2018-11-02T01:00:51.508Z,10.97
2018-11-02T01:01:51.544Z,10.94
2018-11-02T01:02:51.608Z,10.96
2018-11-02T01:03:51.668Z,11.00
2018-11-02T01:04:51.788Z,11.04
2018-11-02T01:05:51.800Z,11.10
2018-11-02T01:06:51.852Z,10.99
2018-11-02T01:07:51.947Z,11.00
2018-11-02T01:08:51.976Z,10.97
2018-11-02T01:09:52.064Z,10.97
2018-11-02T01:10:52.108Z,10.94
2018-11-02T01:11:52.161Z,10.94
2018-11-02T01:12:52.224Z,10.93
2018-11-02T01:13:52.293Z,10.96
2018-11-02T01:14:52.477Z,10.92
2018-11-02T01:15:52.408Z,10.92
2018-11-02T01:16:52.633Z,10.96
2018-11-02T01:17:52.536Z,10.93
2018-11-02T01:18:52.592Z,10.93
2018-11-02T01:19:52.665Z,10.93
2018-11-02T01:20:52.725Z,10.97
2018-11-02T01:21:52.777Z,10.94
2018-11-02T01:22:52.843Z,10.92
2018-11-02T01:23:52.905Z,10.93
2018-11-02T01:24:52.982Z,10.96
2018-11-02T01:25:53.033Z,10.94
2018-11-02T01:26:53.085Z,10.90
2018-11-02T01:27:53.157Z,10.96
2018-11-02T01:28:53.209Z,10.93
2018-11-02T01:29:53.275Z,10.92
2018-11-02T01:30:53.410Z,10.86
2018-11-02T01:31:53.407Z,10.92
2018-11-02T01:32:53.457Z,10.93
2018-11-02T01:33:53.518Z,10.97
2018-11-02T01:34:53.582Z,10.96
2018-11-02T01:35:53.668Z,10.94
2018-11-02T01:36:53.717Z,10.90
2018-11-02T01:37:53.766Z,10.97
2018-11-02T01:38:53.826Z,10.93
2018-11-02T01:39:53.890Z,11.05
2018-11-02T01:40:53.958Z,10.97
2018-11-02T01:41:54.026Z,10.97
2018-11-02T01:42:54.073Z,10.99
2018-11-02T01:43:54.134Z,11.05
2018-11-02T01:44:54.203Z,10.99
2018-11-02T01:45:54.258Z,11.04
2018-11-02T01:46:54.466Z,11.05
2018-11-02T01:47:54.383Z,11.04
2018-11-02T01:48:54.448Z,11.10
2018-11-02T01:49:54.506Z,11.04
2018-11-02T01:50:54.566Z,11.12
2018-11-02T01:51:54.634Z,10.96
2018-11-02T01:52:54.709Z,11.08
2018-11-02T01:53:54.754Z,11.10
2018-11-02T01:54:54.815Z,11.05
2018-11-02T01:55:54.875Z,11.12
2018-11-02T01:56:54.947Z,11.12
2018-11-02T01:57:55.007Z,11.23
2018-11-02T01:58:55.063Z,11.15
2018-11-02T01:59:55.123Z,11.12
2018-11-02T02:00:55.186Z,11.12
2018-11-02T02:01:55.395Z,11.12
2018-11-02T02:02:55.311Z,11.14
2018-11-02T02:03:55.371Z,11.12
2018-11-02T02:04:55.438Z,11.12
2018-11-02T02:05:55.495Z,11.18
2018-11-02T02:06:55.563Z,11.15
2018-11-02T02:07:55.623Z,11.26
2018-11-02T02:08:55.679Z,11.32
2018-11-02T02:09:55.743Z,11.32
2018-11-02T02:10:55.807Z,11.41
2018-11-02T02:11:55.872Z,11.37
2018-11-02T02:12:55.942Z,11.45
2018-11-02T02:13:55.988Z,11.37
2018-11-02T02:14:56.051Z,11.33
2018-11-02T02:15:56.112Z,11.27
2018-11-02T02:16:56.178Z,11.26
2018-11-02T02:17:56.264Z,11.26
2018-11-02T02:18:56.302Z,11.29
2018-11-02T02:19:56.360Z,11.37
2018-11-02T02:20:56.424Z,11.36
2018-11-02T02:21:56.484Z,11.26
2018-11-02T02:22:56.558Z,11.26
2018-11-02T02:23:56.612Z,11.26
2018-11-02T02:24:56.697Z,11.15
2018-11-02T02:25:56.735Z,11.25
2018-11-02T02:26:56.792Z,11.18
2018-11-02T02:27:56.868Z,11.12
2018-11-02T02:28:56.957Z,11.08
2018-11-02T02:29:56.976Z,11.12
2018-11-02T02:30:57.036Z,11.12
2018-11-02T02:31:57.104Z,11.15
2018-11-02T02:32:57.285Z,11.11
2018-11-02T02:33:57.225Z,11.15
2018-11-02T02:34:57.288Z,11.14
2018-11-02T02:35:57.345Z,11.14
2018-11-02T02:36:57.409Z,11.10
2018-11-02T02:37:57.489Z,11.11
2018-11-02T02:38:57.545Z,11.10
2018-11-02T02:39:57.597Z,11.12
2018-11-02T02:40:57.652Z,11.15
2018-11-02T02:41:57.716Z,11.17
2018-11-02T02:42:57.784Z,11.19
2018-11-02T02:43:57.844Z,11.15
2018-11-02T02:44:57.901Z,11.12
2018-11-02T02:45:57.965Z,11.14
2018-11-02T02:46:58.029Z,11.26
2018-11-02T02:47:58.121Z,11.26
2018-11-02T02:48:58.153Z,11.32
2018-11-02T02:49:58.212Z,11.36
2018-11-02T02:50:58.273Z,11.40
2018-11-02T02:51:58.337Z,11.41
2018-11-02T02:52:58.436Z,11.37
2018-11-02T02:53:58.465Z,11.44
2018-11-02T02:54:58.517Z,11.32
2018-11-02T02:55:58.581Z,11.40
2018-11-02T02:56:58.641Z,11.41
2018-11-02T02:57:58.709Z,11.45
2018-11-02T02:58:58.777Z,11.45
2018-11-02T02:59:58.829Z,11.43
2018-11-02T03:00:58.890Z,11.37
2018-11-02T03:01:58.949Z,11.37
2018-11-02T03:02:59.022Z,11.43
2018-11-02T03:03:59.085Z,11.40
2018-11-02T03:04:59.133Z,11.44
2018-11-02T03:05:59.205Z,11.37
2018-11-02T03:06:59.258Z,11.37
2018-11-02T03:07:59.326Z,11.41
2018-11-02T03:08:59.389Z,11.35
2018-11-02T03:09:59.442Z,11.43
2018-11-02T03:10:59.672Z,11.43
2018-11-02T03:11:59.587Z,11.37
2018-11-02T03:12:59.634Z,11.29
2018-11-02T03:13:59.702Z,11.32
2018-11-02T03:14:59.752Z,11.26
2018-11-02T03:15:59.814Z,11.30
2018-11-02T03:16:59.878Z,11.26
2018-11-02T03:17:59.942Z,11.17
2018-11-02T03:19:00.006Z,11.18
2018-11-02T03:20:00.058Z,11.27
2018-11-02T03:21:00.129Z,11.18
2018-11-02T03:22:00.184Z,11.27
2018-11-02T03:23:00.362Z,11.12
2018-11-02T03:24:00.306Z,11.19
2018-11-02T03:25:00.367Z,11.12
2018-11-02T03:26:00.430Z,11.17
2018-11-02T03:27:00.507Z,11.19
2018-11-02T03:28:00.571Z,11.15
2018-11-02T03:29:00.623Z,11.14
2018-11-02T03:30:00.678Z,11.15
2018-11-02T03:31:00.738Z,11.18
2018-11-02T03:32:00.799Z,11.14
2018-11-02T03:33:00.871Z,11.12
2018-11-02T03:34:00.943Z,11.18
2018-11-02T03:35:00.987Z,11.12
2018-11-02T03:36:01.047Z,11.11
2018-11-02T03:37:01.107Z,11.17
2018-11-02T03:38:01.415Z,11.15
2018-11-02T03:39:01.231Z,11.11
2018-11-02T03:40:01.298Z,11.14
2018-11-02T03:41:01.355Z,11.14
2018-11-02T03:42:01.415Z,11.19
2018-11-02T03:43:01.487Z,11.17
2018-11-02T03:44:01.547Z,11.15
2018-11-02T03:45:01.603Z,11.15
2018-11-02T03:46:01.664Z,11.07
2018-11-02T03:47:01.724Z,11.25
2018-11-02T03:48:01.795Z,11.17
2018-11-02T03:49:01.859Z,11.00
2018-11-02T03:50:01.913Z,11.11
2018-11-02T03:51:01.971Z,10.94
2018-11-02T03:52:02.031Z,10.89
2018-11-02T03:53:02.432Z,10.89
2018-11-02T03:54:02.160Z,10.76
2018-11-02T03:55:02.219Z,10.84
2018-11-02T03:56:02.299Z,10.72
2018-11-02T03:57:02.399Z,10.67
2018-11-02T03:58:02.408Z,10.64
2018-11-02T03:59:02.744Z,10.56
2018-11-02T04:00:02.527Z,10.48
2018-11-02T04:01:02.588Z,10.49
2018-11-02T04:02:02.648Z,10.49
2018-11-02T04:03:02.712Z,10.49
2018-11-02T04:04:02.780Z,10.46
2018-11-02T04:05:02.848Z,10.38
2018-11-02T04:06:02.900Z,10.42
2018-11-02T04:07:02.955Z,10.40
2018-11-02T04:08:03.016Z,10.42
2018-11-02T04:09:03.197Z,10.40
2018-11-02T04:10:03.140Z,10.34
2018-11-02T04:11:03.204Z,10.33
2018-11-02T04:12:03.260Z,10.33
2018-11-02T04:13:03.324Z,10.25
2018-11-02T04:14:03.396Z,10.17
2018-11-02T04:15:03.456Z,10.12
2018-11-02T04:16:03.504Z,10.16
2018-11-02T04:17:03.572Z,10.23
2018-11-02T04:18:03.633Z,10.25
2018-11-02T04:19:03.700Z,10.20
2018-11-02T04:20:03.761Z,10.23
2018-11-02T04:21:03.817Z,10.25
2018-11-02T04:22:03.879Z,10.35
2018-11-02T04:23:03.941Z,10.35
2018-11-02T04:24:04.009Z,10.25
2018-11-02T04:25:04.069Z,10.20
2018-11-02T04:26:04.125Z,10.35
2018-11-02T04:27:04.197Z,10.38
2018-11-02T04:28:04.244Z,10.40
2018-11-02T04:29:04.361Z,10.33
2018-11-02T04:30:04.373Z,10.28
2018-11-02T04:31:04.530Z,10.17
2018-11-02T04:32:04.521Z,10.19
2018-11-02T04:33:04.558Z,10.17
2018-11-02T04:34:04.650Z,10.19
2018-11-02T04:35:04.681Z,10.10
2018-11-02T04:36:04.737Z,10.15
2018-11-02T04:37:04.802Z,10.15
2018-11-02T04:38:04.866Z,10.19
2018-11-02T04:39:04.926Z,10.22
2018-11-02T04:40:04.990Z,10.17
2018-11-02T04:41:05.072Z,10.13
2018-11-02T04:42:05.107Z,10.15
2018-11-02T04:43:05.185Z,10.02
2018-11-02T04:44:05.326Z,10.09
2018-11-02T04:45:05.306Z,10.12
2018-11-02T04:46:05.364Z,9.98
2018-11-02T04:47:05.410Z,10.04
2018-11-02T04:48:05.475Z,10.01
2018-11-02T04:49:05.582Z,10.01
2018-11-02T04:50:05.602Z,10.01
2018-11-02T04:51:05.761Z,10.10
2018-11-02T04:52:05.723Z,10.07
2018-11-02T04:53:05.782Z,10.15
2018-11-02T04:54:05.850Z,10.10
2018-11-02T04:55:05.907Z,10.10
2018-11-02T04:56:05.958Z,10.04
2018-11-02T04:57:06.024Z,10.10
2018-11-02T04:58:06.082Z,10.12
2018-11-02T04:59:06.250Z,10.25
2018-11-02T05:00:06.203Z,10.25
2018-11-02T05:01:06.272Z,10.26
2018-11-02T05:02:06.330Z,10.30
2018-11-02T05:03:06.390Z,10.28
2018-11-02T05:04:06.455Z,10.28
2018-11-02T05:05:06.519Z,10.25
2018-11-02T05:06:06.566Z,10.16
2018-11-02T05:07:06.630Z,10.15
2018-11-02T05:08:06.697Z,10.07
2018-11-02T05:09:06.766Z,10.07
2018-11-02T05:10:06.826Z,10.13
2018-11-02T05:11:06.887Z,10.12
2018-11-02T05:12:06.939Z,10.07
2018-11-02T05:13:07.001Z,10.01
2018-11-02T05:14:07.067Z,10.04
2018-11-02T05:15:07.135Z,10.02
2018-11-02T05:16:07.183Z,10.09
2018-11-02T05:17:07.243Z,10.02
2018-11-02T05:18:07.307Z,10.09
2018-11-02T05:19:07.375Z,10.04
2018-11-02T05:20:07.468Z,10.10
2018-11-02T05:21:07.495Z,10.12
2018-11-02T05:22:07.553Z,10.12
2018-11-02T05:23:07.612Z,10.10
2018-11-02T05:24:07.723Z,10.04
2018-11-02T05:25:07.748Z,10.05
2018-11-02T05:26:07.796Z,10.04
2018-11-02T05:27:07.862Z,10.04
2018-11-02T05:28:07.919Z,10.02
2018-11-02T05:29:07.988Z,9.92
2018-11-02T05:30:08.048Z,9.97
2018-11-02T05:31:08.101Z,9.92
2018-11-02T05:32:08.164Z,9.89
2018-11-02T05:33:08.224Z,9.87
2018-11-02T05:34:08.532Z,9.94
2018-11-02T05:35:08.348Z,9.97
2018-11-02T05:36:08.408Z,9.91
2018-11-02T05:37:08.468Z,9.94
2018-11-02T05:38:08.532Z,9.84
2018-11-02T05:40:49.908Z,9.87
2018-11-02T05:41:49.944Z,9.86
2018-11-02T05:42:50.004Z,9.87
2018-11-02T05:43:50.065Z,9.86
2018-11-02T05:44:50.129Z,9.87
2018-11-02T05:45:50.296Z,9.83
2018-11-02T05:46:50.249Z,9.79
2018-11-02T05:47:50.312Z,9.84
2018-11-02T05:48:50.372Z,9.87
2018-11-02T05:49:50.432Z,9.84
2018-11-02T05:50:50.509Z,9.86
2018-11-02T05:51:50.561Z,9.84
2018-11-02T05:52:50.617Z,9.77
2018-11-02T05:53:50.677Z,9.76
2018-11-02T05:54:50.737Z,9.76
2018-11-02T05:55:50.805Z,9.73
2018-11-02T05:56:50.884Z,9.65
2018-11-02T05:57:50.923Z,9.66
2018-11-02T05:58:50.982Z,9.64
2018-11-02T05:59:51.043Z,9.65
2018-11-02T06:00:51.341Z,9.66
2018-11-02T06:01:51.165Z,9.65
2018-11-02T06:02:51.233Z,9.61
2018-11-02T06:03:51.285Z,9.62
2018-11-02T06:04:51.349Z,9.66
2018-11-02T06:05:51.417Z,9.69
2018-11-02T06:06:51.485Z,9.68
2018-11-02T06:07:51.601Z,9.73
2018-11-02T06:08:51.597Z,9.82
2018-11-02T06:09:51.668Z,9.84
2018-11-02T06:10:51.727Z,9.79
2018-11-02T06:11:51.781Z,9.86
2018-11-02T06:12:51.837Z,9.92
2018-11-02T06:13:51.897Z,9.89
2018-11-02T06:14:51.962Z,9.86
2018-11-02T06:15:52.027Z,9.87
2018-11-02T06:16:52.144Z,9.82
2018-11-02T06:17:52.143Z,9.87
2018-11-02T06:18:52.204Z,9.80
2018-11-02T06:19:52.262Z,9.83
2018-11-02T06:20:52.370Z,9.83
2018-11-02T06:21:52.386Z,9.83
2018-11-02T06:22:52.446Z,9.79
2018-11-02T06:23:52.510Z,9.86
2018-11-02T06:24:52.570Z,9.80
2018-11-02T06:25:52.638Z,9.74
2018-11-02T06:26:52.703Z,9.69
2018-11-02T06:27:52.750Z,9.74
2018-11-02T06:28:52.814Z,9.76
2018-11-02T06:29:52.874Z,9.76
2018-11-02T06:30:52.943Z,9.68
2018-11-02T06:31:53.003Z,9.72
2018-11-02T06:32:53.276Z,9.76
2018-11-02T06:33:53.118Z,9.72
2018-11-02T06:34:53.178Z,9.69
2018-11-02T06:35:53.482Z,9.74
2018-11-02T06:36:53.303Z,9.76
2018-11-02T06:37:53.362Z,9.77
2018-11-02T06:38:53.513Z,9.87
2018-11-02T06:39:53.483Z,9.80
2018-11-02T06:40:53.555Z,9.87
2018-11-02T06:41:53.618Z,9.87
2018-11-02T06:42:53.667Z,9.87
2018-11-02T06:43:53.737Z,9.95
2018-11-02T06:44:53.873Z,9.84
2018-11-02T06:45:53.860Z,9.86
2018-11-02T06:46:53.919Z,9.84
2018-11-02T06:47:53.975Z,9.87
2018-11-02T06:48:54.136Z,9.84
2018-11-02T06:49:54.095Z,9.84
2018-11-02T06:50:54.401Z,9.84
2018-11-02T06:51:54.218Z,9.89
2018-11-02T06:52:54.280Z,9.84
2018-11-02T06:53:54.343Z,9.91
2018-11-02T06:54:54.404Z,9.87
2018-11-02T06:55:54.471Z,9.92
2018-11-02T06:56:54.531Z,9.89
2018-11-02T06:57:54.591Z,9.91
2018-11-02T06:58:54.652Z,10.01
2018-11-02T06:59:54.935Z,10.04
2018-11-02T07:00:54.775Z,10.02
2018-11-02T07:01:54.840Z,10.04
2018-11-02T07:02:54.891Z,10.01
2018-11-02T07:03:54.954Z,10.01
2018-11-02T07:04:55.016Z,10.01
2018-11-02T07:05:55.172Z,9.99
2018-11-02T07:06:55.140Z,10.02
2018-11-02T07:07:55.340Z,10.07
2018-11-02T07:08:55.259Z,10.05
2018-11-02T07:09:55.320Z,10.13
2018-11-02T07:10:55.388Z,10.12
2018-11-02T07:11:55.452Z,10.25
2018-11-02T07:12:55.504Z,10.20
2018-11-02T07:13:55.570Z,10.28
2018-11-02T07:14:55.632Z,10.19
2018-11-02T07:15:55.696Z,10.31
2018-11-02T07:16:55.763Z,10.37
2018-11-02T07:17:55.816Z,10.42
2018-11-02T07:18:55.872Z,10.48
2018-11-02T07:19:55.936Z,10.71
2018-11-02T07:20:56.017Z,10.94
2018-11-02T07:21:56.065Z,11.12
2018-11-02T07:22:56.121Z,11.45
2018-11-02T07:23:56.183Z,11.70
2018-11-02T07:24:56.270Z,11.99
2018-11-02T07:25:56.306Z,11.88
2018-11-02T07:26:56.465Z,12.07
2018-11-02T07:27:56.429Z,11.59
2018-11-02T07:28:56.492Z,11.54
2018-11-02T07:29:56.557Z,11.33
2018-11-02T07:30:56.617Z,11.27
2018-11-02T07:31:56.685Z,11.26
2018-11-02T07:32:56.749Z,11.10
2018-11-02T07:33:56.805Z,11.29
2018-11-02T07:34:56.865Z,11.17
2018-11-02T07:35:56.929Z,11.22
2018-11-02T07:36:56.997Z,11.04
2018-11-02T07:37:57.061Z,11.04
2018-11-02T07:38:57.117Z,10.89
2018-11-02T07:39:57.177Z,10.92
2018-11-02T07:40:57.241Z,10.86
2018-11-02T07:41:57.361Z,10.93
2018-11-02T07:42:57.365Z,10.86
2018-11-02T07:43:57.426Z,10.86
2018-11-02T07:44:57.490Z,10.90
2018-11-02T07:45:57.550Z,10.96
2018-11-02T07:46:57.618Z,10.90
2018-11-02T07:47:57.687Z,10.94
2018-11-02T07:48:57.739Z,10.94
2018-11-02T07:49:57.798Z,10.99
2018-11-02T07:50:57.861Z,11.05
2018-11-02T07:51:57.930Z,11.02
2018-11-02T07:52:58.056Z,11.10
2018-11-02T07:53:58.059Z,11.04
2018-11-02T07:54:58.111Z,11.11
2018-11-02T07:55:58.171Z,11.08
2018-11-02T07:56:58.281Z,11.15
2018-11-02T07:57:58.298Z,11.12
2018-11-02T07:58:58.358Z,11.14
2018-11-02T07:59:58.423Z,11.08
2018-11-02T08:00:58.490Z,11.15
2018-11-02T08:01:58.632Z,11.23
2018-11-02T08:02:58.615Z,11.15
2018-11-02T08:03:58.671Z,11.15
2018-11-02T08:04:58.738Z,11.15
2018-11-02T08:05:58.795Z,11.14
2018-11-02T08:06:58.867Z,11.22
2018-11-02T08:07:58.927Z,11.18
2018-11-02T08:08:58.983Z,11.17
2018-11-02T08:09:59.043Z,11.17
2018-11-02T08:10:59.103Z,11.12
2018-11-02T08:11:59.407Z,11.25
2018-11-02T08:12:59.232Z,11.25
2018-11-02T08:13:59.292Z,11.14
2018-11-02T08:14:59.355Z,11.22
2018-11-02T08:15:59.415Z,11.14
2018-11-02T08:16:59.487Z,11.14
2018-11-02T08:17:59.551Z,11.29
2018-11-02T08:18:59.793Z,11.27
2018-11-02T08:19:59.675Z,11.19
2018-11-02T08:20:59.730Z,11.25
2018-11-02T08:21:59.800Z,11.12
2018-11-02T08:22:59.860Z,11.18
2018-11-02T08:23:59.916Z,11.22
2018-11-02T08:24:59.984Z,11.15
2018-11-02T08:26:00.040Z,11.26
2018-11-02T08:27:00.231Z,11.17
2018-11-02T08:28:00.163Z,11.17
2018-11-02T08:29:00.227Z,11.19
2018-11-02T08:30:00.291Z,11.14
2018-11-02T08:31:00.352Z,11.17
2018-11-02T08:32:00.438Z,11.14
2018-11-02T08:33:00.484Z,11.26
2018-11-02T08:34:00.542Z,11.26
2018-11-02T08:35:00.600Z,11.14
2018-11-02T08:36:00.668Z,11.25
2018-11-02T08:37:00.736Z,11.32
2018-11-02T08:38:00.804Z,11.44
2018-11-02T08:39:00.848Z,11.37
2018-11-02T08:40:00.912Z,11.40
2018-11-02T08:41:00.976Z,11.40
2018-11-02T08:42:01.044Z,11.36
2018-11-02T08:43:01.108Z,11.44
2018-11-02T08:44:01.161Z,11.52
2018-11-02T08:45:01.230Z,11.36
2018-11-02T08:46:01.288Z,11.48
2018-11-02T08:47:01.357Z,11.54
2018-11-02T08:48:01.425Z,11.63
2018-11-02T08:49:01.473Z,11.66
2018-11-02T08:50:01.538Z,11.66
2018-11-02T08:51:01.597Z,11.62
2018-11-02T08:52:01.719Z,11.80
2018-11-02T08:53:01.755Z,11.68
2018-11-02T08:54:01.788Z,11.73
2018-11-02T08:55:01.851Z,11.75
2018-11-02T08:56:01.914Z,11.73
2018-11-02T08:57:01.987Z,11.87
2018-11-02T08:58:02.186Z,11.73
2018-11-02T08:59:02.147Z,11.72
2018-11-02T09:00:02.208Z,11.84
2018-11-02T09:01:02.226Z,11.63
2018-11-02T09:02:02.566Z,11.70
2018-11-02T09:03:02.350Z,11.84
2018-11-02T09:04:02.414Z,12.22
2018-11-02T09:05:02.553Z,12.32
2018-11-02T09:06:02.538Z,12.55
2018-11-02T09:07:02.618Z,12.53
2018-11-02T09:08:02.673Z,12.42
2018-11-02T09:09:02.726Z,12.45
2018-11-02T09:10:02.790Z,12.35
2018-11-02T09:11:02.850Z,12.31
2018-11-02T09:12:02.948Z,12.20
2018-11-02T09:13:02.986Z,12.22
2018-11-02T09:14:03.042Z,12.02
2018-11-02T09:15:03.105Z,11.99
2018-11-02T09:16:03.167Z,11.77
2018-11-02T09:17:03.327Z,11.70
2018-11-02T09:18:03.295Z,11.99
2018-11-02T09:19:03.355Z,12.07
2018-11-02T09:20:03.419Z,12.25
2018-11-02T09:21:03.479Z,12.54
2018-11-02T09:22:03.551Z,12.55
2018-11-02T09:23:03.615Z,12.61
2018-11-02T09:24:03.682Z,12.75
2018-11-02T09:25:03.731Z,12.80
2018-11-02T09:26:03.795Z,12.65
2018-11-02T09:27:03.863Z,12.58
2018-11-02T09:28:04.008Z,12.32
2018-11-02T09:29:04.033Z,12.17
2018-11-02T09:30:04.047Z,12.06
2018-11-02T09:31:04.121Z,12.03
2018-11-02T09:32:04.436Z,11.99
2018-11-02T09:33:04.254Z,11.86
2018-11-02T09:34:04.299Z,11.94
2018-11-02T09:35:04.364Z,11.90
2018-11-02T09:36:04.431Z,11.97
2018-11-02T09:37:04.495Z,11.80
2018-11-02T09:38:04.559Z,11.81
2018-11-02T09:39:04.611Z,11.83
2018-11-02T09:40:04.744Z,11.80
2018-11-02T09:41:04.743Z,11.78
2018-11-02T09:42:04.812Z,11.68
2018-11-02T09:43:04.871Z,11.66
2018-11-02T09:44:04.927Z,11.54
2018-11-02T09:45:04.996Z,11.54
2018-11-02T09:46:05.055Z,11.52
2018-11-02T09:47:05.388Z,11.35
2018-11-02T09:48:05.183Z,11.33
2018-11-02T09:49:05.244Z,11.47
2018-11-02T09:50:05.312Z,11.44
2018-11-02T09:51:05.368Z,11.48
2018-11-02T09:52:05.509Z,11.55
2018-11-02T09:53:05.504Z,11.57
2018-11-02T09:54:05.565Z,11.52
2018-11-02T09:55:05.620Z,11.65
2018-11-02T09:56:05.688Z,11.63
2018-11-02T09:57:05.756Z,11.66
2018-11-02T09:58:05.816Z,11.66
2018-11-02T09:59:05.871Z,11.87
2018-11-02T10:00:05.941Z,11.88
2018-11-02T10:01:06.000Z,11.90
2018-11-02T10:02:06.108Z,11.91
2018-11-02T10:03:06.132Z,12.09
2018-11-02T10:04:06.193Z,12.07
2018-11-02T10:05:06.253Z,12.13
2018-11-02T10:06:06.313Z,12.22
2018-11-02T10:07:06.384Z,12.21
2018-11-02T10:08:06.449Z,12.37
2018-11-02T10:09:06.579Z,12.31
2018-11-02T10:10:06.573Z,12.32
2018-11-02T10:11:06.634Z,12.27
2018-11-02T10:12:06.701Z,12.31
2018-11-02T10:13:06.760Z,12.21
2018-11-02T10:14:06.821Z,12.18
2018-11-02T10:15:06.884Z,12.18
2018-11-02T10:16:06.944Z,12.18
2018-11-02T10:17:07.017Z,12.17
2018-11-02T10:18:07.076Z,12.17
2018-11-02T10:19:07.134Z,12.17
2018-11-02T10:20:07.197Z,12.03
2018-11-02T10:21:07.261Z,12.03
2018-11-02T10:22:07.328Z,12.02
2018-11-02T10:23:07.393Z,12.07
2018-11-02T10:24:07.450Z,12.03
2018-11-02T10:25:07.514Z,12.03
2018-11-02T10:26:07.577Z,12.18
2018-11-02T10:27:07.657Z,12.00
2018-11-02T10:28:07.722Z,12.09
2018-11-02T10:29:07.765Z,12.00
2018-11-02T10:30:07.836Z,12.00
2018-11-02T10:31:07.893Z,12.04
2018-11-02T10:32:07.962Z,12.13
2018-11-02T10:33:08.023Z,12.17
2018-11-02T10:34:08.081Z,12.22
2018-11-02T10:35:08.155Z,12.13
2018-11-02T10:36:08.268Z,12.12
2018-11-02T10:37:08.314Z,12.13
2018-11-02T10:38:08.572Z,12.10
2018-11-02T10:39:08.398Z,12.06
2018-11-02T10:40:08.462Z,12.02
2018-11-02T10:41:08.522Z,12.06
2018-11-02T10:42:08.588Z,12.02
2018-11-02T10:43:08.658Z,12.04
2018-11-02T10:44:08.730Z,11.99
2018-11-02T10:45:08.774Z,12.04
2018-11-02T10:46:08.842Z,12.06
2018-11-02T10:47:08.899Z,12.03
2018-11-02T10:48:08.971Z,12.25
2018-11-02T10:49:09.096Z,12.24
2018-11-02T10:50:09.099Z,12.20
2018-11-02T10:51:09.233Z,12.21
2018-11-02T10:52:09.214Z,12.20
2018-11-02T10:53:09.298Z,12.20
2018-11-02T10:54:09.339Z,12.27
2018-11-02T10:55:09.404Z,12.31
2018-11-02T10:56:09.466Z,12.28
2018-11-02T10:57:09.531Z,12.35
2018-11-02T10:58:09.605Z,12.39
2018-11-02T10:59:09.664Z,12.47
2018-11-02T11:00:09.719Z,12.57
2018-11-02T11:01:09.916Z,12.61
2018-11-02T11:02:09.847Z,12.76
2018-11-02T11:03:09.916Z,12.76
2018-11-02T11:04:09.979Z,12.85
2018-11-02T11:05:10.050Z,12.85
2018-11-02T11:06:10.107Z,12.90
2018-11-02T11:07:10.161Z,12.95
2018-11-02T11:08:10.279Z,13.08
2018-11-02T11:09:10.291Z,13.01
2018-11-02T11:10:10.351Z,12.95
2018-11-02T11:11:10.416Z,13.08
2018-11-02T11:12:10.521Z,13.08
2018-11-02T11:13:10.942Z,13.05
2018-11-02T11:14:10.611Z,12.93
2018-11-02T11:15:10.667Z,12.97
2018-11-02T11:16:10.731Z,13.01
2018-11-02T11:17:10.791Z,12.83
2018-11-02T11:18:10.863Z,12.90
2018-11-02T11:19:10.927Z,12.80
2018-11-02T11:20:10.987Z,12.87
2018-11-02T11:21:11.054Z,12.93
2018-11-02T11:22:11.111Z,12.97
2018-11-02T11:23:11.216Z,13.03
2018-11-02T11:24:11.236Z,13.09
2018-11-02T11:25:11.300Z,13.19
2018-11-02T11:26:11.364Z,13.23
2018-11-02T11:27:11.428Z,13.33
2018-11-02T11:28:11.495Z,13.39
2018-11-02T11:29:11.620Z,13.44
2018-11-02T11:30:11.617Z,13.46
2018-11-02T11:31:11.679Z,13.49
2018-11-02T11:32:11.743Z,13.33
2018-11-02T11:33:11.823Z,13.30
2018-11-02T11:34:11.880Z,13.27
2018-11-02T11:35:11.937Z,13.28
2018-11-02T11:36:11.996Z,13.30
2018-11-02T11:37:12.059Z,13.28
2018-11-02T11:38:12.364Z,13.27
2018-11-02T11:39:12.188Z,13.31
2018-11-02T11:40:12.254Z,13.37
2018-11-02T11:41:12.316Z,13.27
2018-11-02T11:42:12.380Z,13.18
2018-11-02T11:43:12.453Z,13.15
2018-11-02T11:44:12.512Z,13.13
2018-11-02T11:45:12.573Z,13.16
2018-11-02T11:46:12.633Z,13.30
2018-11-02T11:47:12.697Z,13.30
2018-11-02T11:48:12.769Z,13.37
2018-11-02T11:49:12.939Z,13.25
2018-11-02T11:50:12.889Z,13.16
2018-11-02T11:51:12.957Z,13.11
2018-11-02T11:52:13.013Z,13.03
2018-11-02T11:53:13.325Z,12.94
2018-11-02T11:54:13.156Z,12.80
2018-11-02T11:55:13.205Z,12.91
2018-11-02T11:56:13.269Z,12.85
2018-11-02T11:57:13.333Z,12.94
2018-11-02T11:58:13.405Z,12.91
2018-11-02T11:59:13.465Z,12.87
2018-11-02T12:00:13.521Z,12.95
2018-11-02T12:01:13.592Z,13.01
2018-11-02T12:02:13.728Z,13.09
2018-11-02T12:03:13.724Z,13.04
2018-11-02T12:04:14.306Z,13.03
2018-11-02T12:05:13.845Z,13.09
2018-11-02T12:06:13.909Z,13.08
2018-11-02T12:07:13.965Z,13.18
2018-11-02T12:08:14.038Z,13.11
2018-11-02T12:09:14.121Z,13.27
2018-11-02T12:10:14.235Z,13.19
2018-11-02T12:11:14.221Z,13.33
2018-11-02T12:12:14.286Z,13.31
2018-11-02T12:13:14.362Z,13.23
2018-11-02T12:14:14.422Z,13.31
2018-11-02T12:15:14.473Z,13.31
2018-11-02T12:16:14.537Z,13.16
2018-11-02T12:17:14.602Z,13.13
2018-11-02T12:18:14.678Z,13.04
2018-11-02T12:19:14.737Z,13.08
2018-11-02T12:20:14.798Z,13.05
2018-11-02T12:21:14.860Z,12.97
2018-11-02T12:22:14.922Z,12.94
2018-11-02T12:23:14.990Z,12.97
2018-11-02T12:24:15.055Z,12.93
2018-11-02T12:25:15.110Z,12.83
2018-11-02T12:26:15.174Z,12.79
2018-11-02T12:27:15.244Z,12.87
2018-11-02T12:28:15.330Z,12.90
2018-11-02T12:29:15.455Z,12.83
2018-11-02T12:30:15.426Z,12.90
2018-11-02T12:31:15.495Z,12.87
2018-11-02T12:32:15.558Z,12.80
2018-11-02T12:33:15.618Z,12.76
2018-11-02T12:34:15.691Z,12.79
2018-11-02T12:35:15.757Z,12.72
2018-11-02T12:36:15.838Z,12.64
2018-11-02T12:37:15.941Z,12.67
2018-11-02T12:38:15.936Z,12.61
2018-11-02T12:39:16.011Z,12.50
2018-11-02T12:40:16.082Z,12.47
2018-11-02T12:41:16.127Z,12.57
2018-11-02T12:42:16.202Z,12.50
2018-11-02T12:43:16.303Z,12.45
2018-11-02T12:44:16.323Z,12.43
2018-11-02T12:45:16.390Z,12.50
2018-11-02T12:46:16.442Z,12.54
2018-11-02T12:47:16.508Z,12.57
2018-11-02T12:48:16.627Z,12.60
2018-11-02T12:49:17.039Z,12.68
2018-11-02T12:50:16.862Z,12.78
2018-11-02T12:51:16.764Z,12.79
2018-11-02T12:52:16.824Z,12.86
2018-11-02T12:53:16.884Z,12.80
2018-11-02T12:54:16.956Z,12.83
2018-11-02T12:55:17.024Z,12.80
2018-11-02T12:56:17.078Z,12.87
2018-11-02T12:57:17.153Z,12.91
2018-11-02T12:58:17.204Z,12.97